Time,TemperatureF,DewpointF,PressureIn,WindDirection,WindDirectionDegrees,WindSpeedMPH,WindSpeedGustMPH,Humidity,HourlyPrecipIn,Conditions,Clouds,dailyrainin,SolarRadiationWatts/m^2,SoftwareType,DateUTC
2013-05-04 07:25:00,61.7,47.7,29.67,East,93,0.0,0.0,60,0.00,,,0.00,0,Wunderground v.1.15,2013-05-04 14:25:00,
2013-05-04 07:31:00,62.1,49.4,29.68,East,93,0.0,0.0,63,0.00,,,0.00,0,Wunderground v.1.15,2013-05-04 14:31:00,
2013-05-04 07:32:00,62.1,48.9,29.67,East,93,0.0,0.0,62,0.00,,,0.00,0,Wunderground v.1.15,2013-05-04 14:32:00,
2013-05-04 07:37:00,62.4,50.1,29.67,East,93,0.0,0.0,64,0.00,,,0.00,0,Wunderground v.1.15,2013-05-04 14:37:00,
2013-05-04 07:43:00,62.6,51.1,29.67,East,93,0.0,0.0,66,0.00,,,0.00,0,Wunderground v.1.15,2013-05-04 14:43:00,
2013-05-04 07:49:00,63.0,48.9,29.67,East,93,0.0,0.0,60,0.00,,,0.00,0,Wunderground v.1.15,2013-05-04 14:49:00,
2013-05-04 07:55:00,63.4,48.8,29.66,East,93,0.0,0.0,59,0.00,,,0.00,0,Wunderground v.1.15,2013-05-04 14:55:00,
2013-05-04 08:01:00,64.0,52.4,29.66,East,94,1.0,1.0,66,0.00,,,0.00,0,Wunderground v.1.15,2013-05-04 15:01:00,
2013-05-04 08:08:00,64.5,52.5,29.66,East,94,0.0,3.0,65,0.00,,,0.00,0,Wunderground v.1.15,2013-05-04 15:08:00,
2013-05-04 08:15:00,65.0,52.9,29.65,East,94,0.0,0.0,65,0.00,,,0.00,0,Wunderground v.1.15,2013-05-04 15:15:00,
2013-05-04 08:21:00,65.4,54.6,29.65,WSW,237,1.0,3.0,68,0.00,,,0.00,0,Wunderground v.1.15,2013-05-04 15:21:00,
2013-05-04 08:26:00,65.7,54.0,29.66,WSW,242,0.0,3.0,66,0.00,,,0.00,0,Wunderground v.1.15,2013-05-04 15:26:00,
2013-05-04 08:32:00,65.8,54.1,29.66,WSW,238,1.0,2.0,66,0.00,,,0.00,0,Wunderground v.1.15,2013-05-04 15:32:00,
2013-05-04 08:38:00,65.7,52.8,29.65,West,275,0.0,4.0,63,0.00,,,0.00,0,Wunderground v.1.15,2013-05-04 15:38:00,
2013-05-04 08:44:00,65.8,53.3,29.65,West,271,3.0,3.0,64,0.00,,,0.00,0,Wunderground v.1.15,2013-05-04 15:44:00,
2013-05-04 08:50:00,65.9,53.4,29.65,West,266,2.0,2.0,64,0.00,,,0.00,0,Wunderground v.1.15,2013-05-04 15:50:00,
2013-05-04 08:56:00,66.4,54.7,29.65,West,268,0.0,2.0,66,0.00,,,0.00,0,Wunderground v.1.15,2013-05-04 15:56:00,
2013-05-04 09:02:00,66.9,55.2,29.65,West,261,0.0,1.0,66,0.00,,,0.00,0,Wunderground v.1.15,2013-05-04 16:02:00,
2013-05-04 09:08:00,67.4,55.2,29.64,West,260,0.0,1.0,65,0.00,,,0.00,0,Wunderground v.1.15,2013-05-04 16:08:00,
2013-05-04 09:13:00,67.8,56.0,29.64,South,180,0.0,0.0,66,0.00,,,0.00,0,Wunderground v.1.15,2013-05-04 16:13:00,
2013-05-04 09:19:00,68.2,55.6,29.63,South,188,1.0,1.0,64,0.00,,,0.00,0,Wunderground v.1.15,2013-05-04 16:19:00,
2013-05-04 09:25:00,68.5,55.4,29.63,WSW,246,0.0,0.0,63,0.00,,,0.00,0,Wunderground v.1.15,2013-05-04 16:25:00,
2013-05-04 09:31:00,69.0,56.3,29.63,SW,234,0.0,0.0,64,0.00,,,0.00,0,Wunderground v.1.15,2013-05-04 16:31:00,
2013-05-04 09:37:00,69.4,55.8,29.63,South,183,0.0,1.0,62,0.00,,,0.00,0,Wunderground v.1.15,2013-05-04 16:37:00,
2013-05-04 09:43:00,69.7,56.5,29.63,SW,226,0.0,0.0,63,0.00,,,0.00,0,Wunderground v.1.15,2013-05-04 16:43:00,
2013-05-04 09:48:00,70.0,55.5,29.63,South,175,0.0,1.0,60,0.00,,,0.00,0,Wunderground v.1.15,2013-05-04 16:48:00,
2013-05-04 09:53:00,70.4,56.3,29.63,West,262,1.0,1.0,61,0.00,,,0.00,0,Wunderground v.1.15,2013-05-04 16:53:00,
2013-05-04 09:58:00,70.9,56.3,29.63,WSW,241,1.0,2.0,60,0.00,,,0.00,0,Wunderground v.1.15,2013-05-04 16:58:00,
2013-05-04 10:03:00,71.4,56.8,29.63,SW,236,1.0,6.0,60,0.00,,,0.00,0,Wunderground v.1.15,2013-05-04 17:03:00,
2013-05-04 10:10:00,72.1,54.5,29.63,WNW,293,8.0,8.0,54,0.00,,,0.00,0,Wunderground v.1.15,2013-05-04 17:10:00,
2013-05-04 10:15:00,72.7,53.5,29.62,WNW,284,6.0,11.0,51,0.00,,,0.00,0,Wunderground v.1.15,2013-05-04 17:15:00,
2013-05-04 10:21:00,73.2,52.3,29.62,WNW,302,3.0,6.0,48,0.00,,,0.00,0,Wunderground v.1.15,2013-05-04 17:21:00,
2013-05-04 10:26:00,73.7,52.8,29.62,NW,325,1.0,7.0,48,0.00,,,0.00,0,Wunderground v.1.15,2013-05-04 17:26:00,
2013-05-04 10:31:00,74.2,51.5,29.62,NW,322,9.0,9.0,45,0.00,,,0.00,0,Wunderground v.1.15,2013-05-04 17:31:00,
2013-05-04 10:36:00,74.7,52.5,29.61,NNW,327,10.0,10.0,46,0.00,,,0.00,0,Wunderground v.1.15,2013-05-04 17:36:00,
2013-05-04 10:41:00,75.1,52.9,29.61,WNW,287,13.0,13.0,46,0.00,,,0.00,0,Wunderground v.1.15,2013-05-04 17:41:00,
2013-05-04 10:46:00,75.4,52.6,29.61,NW,323,9.0,13.0,45,0.00,,,0.00,0,Wunderground v.1.15,2013-05-04 17:46:00,
2013-05-04 10:51:00,75.8,51.7,29.61,WNW,288,4.0,12.0,43,0.00,,,0.00,0,Wunderground v.1.15,2013-05-04 17:51:00,
2013-05-04 10:57:00,76.2,53.3,29.61,NW,317,4.0,12.0,45,0.00,,,0.00,0,Wunderground v.1.15,2013-05-04 17:57:00,
2013-05-04 11:03:00,76.4,51.0,29.61,NNW,330,13.0,13.0,41,0.00,,,0.00,0,Wunderground v.1.15,2013-05-04 18:03:00,
2013-05-04 11:08:00,76.5,51.7,29.61,NW,326,11.0,13.0,42,0.00,,,0.00,0,Wunderground v.1.15,2013-05-04 18:08:00,
2013-05-04 11:13:00,76.8,52.6,29.60,WNW,300,6.0,9.0,43,0.00,,,0.00,0,Wunderground v.1.15,2013-05-04 18:13:00,
2013-05-04 11:19:00,77.2,51.0,29.60,WNW,298,4.0,10.0,40,0.00,,,0.00,0,Wunderground v.1.15,2013-05-04 18:19:00,
2013-05-04 11:24:00,77.3,50.4,29.60,NNW,329,14.0,14.0,39,0.00,,,0.00,0,Wunderground v.1.15,2013-05-04 18:24:00,
2013-05-04 11:29:00,77.4,50.5,29.60,NW,317,9.0,14.0,39,0.00,,,0.00,0,Wunderground v.1.15,2013-05-04 18:29:00,
2013-05-04 11:35:00,77.7,50.1,29.60,West,276,11.0,11.0,38,0.00,,,0.00,0,Wunderground v.1.15,2013-05-04 18:35:00,
2013-05-04 11:40:00,77.8,50.9,29.60,North,355,8.0,8.0,39,0.00,,,0.00,0,Wunderground v.1.15,2013-05-04 18:40:00,
2013-05-04 11:45:00,77.9,48.8,29.60,NW,317,4.0,9.0,36,0.00,,,0.00,0,Wunderground v.1.15,2013-05-04 18:45:00,
2013-05-04 11:51:00,78.2,50.5,29.60,NW,318,5.0,8.0,38,0.00,,,0.00,0,Wunderground v.1.15,2013-05-04 18:51:00,
2013-05-04 11:56:00,78.5,50.8,29.60,NW,306,6.0,8.0,38,0.00,,,0.00,0,Wunderground v.1.15,2013-05-04 18:56:00,
2013-05-04 12:02:00,78.8,49.6,29.59,NW,322,7.0,13.0,36,0.00,,,0.00,0,Wunderground v.1.15,2013-05-04 19:02:00,
2013-05-04 12:08:00,79.0,50.5,29.59,NNW,344,12.0,13.0,37,0.00,,,0.00,0,Wunderground v.1.15,2013-05-04 19:08:00,
2013-05-04 12:13:00,79.2,51.4,29.59,WNW,302,6.0,8.0,38,0.00,,,0.00,0,Wunderground v.1.15,2013-05-04 19:13:00,
2013-05-04 12:18:00,79.3,49.3,29.59,NNW,332,4.0,8.0,35,0.00,,,0.00,0,Wunderground v.1.15,2013-05-04 19:18:00,
2013-05-04 12:24:00,79.7,48.8,29.58,NNW,337,8.0,11.0,34,0.00,,,0.00,0,Wunderground v.1.15,2013-05-04 19:24:00,
2013-05-04 12:29:00,80.3,49.4,29.58,WNW,290,6.0,11.0,34,0.00,,,0.00,0,Wunderground v.1.15,2013-05-04 19:29:00,
2013-05-04 12:34:00,81.2,50.2,29.58,NW,311,4.0,6.0,34,0.00,,,0.00,0,Wunderground v.1.15,2013-05-04 19:34:00,
2013-05-04 12:39:00,81.3,49.4,29.57,NNE,15,7.0,9.0,33,0.00,,,0.00,0,Wunderground v.1.15,2013-05-04 19:39:00,
2013-05-04 12:44:00,81.6,51.3,29.57,WNW,293,3.0,6.0,35,0.00,,,0.00,0,Wunderground v.1.15,2013-05-04 19:44:00,
2013-05-04 12:49:00,82.3,51.1,29.57,West,260,4.0,7.0,34,0.00,,,0.00,0,Wunderground v.1.15,2013-05-04 19:49:00,
2013-05-04 12:55:00,82.8,50.8,29.56,WNW,303,4.0,7.0,33,0.00,,,0.00,0,Wunderground v.1.15,2013-05-04 19:55:00,
2013-05-04 13:00:00,83.0,50.1,29.56,NW,323,5.0,5.0,32,0.00,,,0.00,0,Wunderground v.1.15,2013-05-04 20:00:00,
2013-05-04 13:08:00,83.5,51.4,29.56,NNW,337,0.0,14.0,33,0.00,,,0.00,0,Wunderground v.1.15,2013-05-04 20:08:00,
2013-05-04 13:13:00,83.7,51.5,29.56,NW,320,7.0,7.0,33,0.00,,,0.00,0,Wunderground v.1.15,2013-05-04 20:13:00,
2013-05-04 13:19:00,83.8,51.6,29.56,West,276,5.0,7.0,33,0.00,,,0.00,0,Wunderground v.1.15,2013-05-04 20:19:00,
2013-05-04 13:24:00,84.0,51.8,29.56,WSW,249,5.0,7.0,33,0.00,,,0.00,0,Wunderground v.1.15,2013-05-04 20:24:00,
2013-05-04 13:29:00,84.3,52.1,29.55,NW,320,9.0,9.0,33,0.00,,,0.00,0,Wunderground v.1.15,2013-05-04 20:29:00,
2013-05-04 13:35:00,84.5,52.2,29.55,WNW,302,14.0,14.0,33,0.00,,,0.00,0,Wunderground v.1.15,2013-05-04 20:35:00,
2013-05-04 13:40:00,84.8,52.5,29.55,NW,325,10.0,10.0,33,0.00,,,0.00,0,Wunderground v.1.15,2013-05-04 20:40:00,
2013-05-04 13:46:00,84.9,52.6,29.55,WNW,298,9.0,10.0,33,0.00,,,0.00,0,Wunderground v.1.15,2013-05-04 20:46:00,
2013-05-04 13:51:00,85.1,52.8,29.54,NW,321,3.0,7.0,33,0.00,,,0.00,0,Wunderground v.1.15,2013-05-04 20:51:00,
2013-05-04 13:56:00,84.9,51.7,29.54,WNW,283,4.0,8.0,32,0.00,,,0.00,0,Wunderground v.1.15,2013-05-04 20:56:00,
2013-05-04 14:01:00,84.8,51.7,29.54,WNW,293,5.0,11.0,32,0.00,,,0.00,0,Wunderground v.1.15,2013-05-04 21:01:00,
2013-05-04 14:08:00,84.6,51.5,29.54,SW,233,2.0,11.0,32,0.00,,,0.00,0,Wunderground v.1.15,2013-05-04 21:08:00,
2013-05-04 14:13:00,85.2,85.2,29.54,WNW,287,6.0,6.0,100,0.00,,,0.00,0,Wunderground v.1.15,2013-05-04 21:13:00,
2013-05-04 14:19:00,85.6,85.6,29.54,SW,236,2.0,8.0,100,0.00,,,0.00,0,Wunderground v.1.15,2013-05-04 21:19:00,
2013-05-04 14:25:00,85.6,85.6,29.53,West,280,6.0,6.0,100,0.00,,,0.00,0,Wunderground v.1.15,2013-05-04 21:25:00,
2013-05-04 14:30:00,85.6,85.6,29.54,WNW,284,5.0,5.0,100,0.00,,,0.00,0,Wunderground v.1.15,2013-05-04 21:30:00,
2013-05-04 14:36:00,84.8,84.8,29.53,NW,322,0.0,7.0,100,0.00,,,0.00,0,Wunderground v.1.15,2013-05-04 21:36:00,
2013-05-04 14:41:00,85.6,85.6,29.53,NW,304,7.0,7.0,100,0.00,,,0.00,0,Wunderground v.1.15,2013-05-04 21:41:00,
2013-05-04 14:47:00,86.9,86.9,29.53,SW,231,5.0,8.0,100,0.00,,,0.00,0,Wunderground v.1.15,2013-05-04 21:47:00,
2013-05-04 14:52:00,86.6,86.6,29.53,WNW,292,2.0,4.0,100,0.00,,,0.00,0,Wunderground v.1.15,2013-05-04 21:52:00,
2013-05-04 14:57:00,86.4,86.4,29.52,NNW,327,1.0,6.0,100,0.00,,,0.00,0,Wunderground v.1.15,2013-05-04 21:57:00,
2013-05-04 15:02:00,86.8,86.8,29.52,WSW,255,0.0,14.0,100,0.00,,,0.00,0,Wunderground v.1.15,2013-05-04 22:02:00,
2013-05-04 15:08:00,88.4,88.4,29.52,SW,234,1.0,14.0,100,0.00,,,0.00,0,Wunderground v.1.15,2013-05-04 22:08:00,
2013-05-04 15:13:00,88.5,88.5,29.52,WSW,255,4.0,4.0,100,0.00,,,0.00,0,Wunderground v.1.15,2013-05-04 22:13:00,
2013-05-04 15:18:00,92.5,92.5,29.51,WNW,289,1.0,4.0,100,0.00,,,0.00,0,Wunderground v.1.15,2013-05-04 22:18:00,
2013-05-04 15:23:00,92.8,92.8,29.51,WNW,283,2.0,3.0,100,0.00,,,0.00,0,Wunderground v.1.15,2013-05-04 22:23:00,
2013-05-04 15:28:00,93.0,93.0,29.51,SSW,211,3.0,3.0,100,0.00,,,0.00,0,Wunderground v.1.15,2013-05-04 22:28:00,
2013-05-04 15:33:00,93.1,93.1,29.51,SW,219,1.0,5.0,100,0.00,,,0.00,0,Wunderground v.1.15,2013-05-04 22:33:00,
2013-05-04 15:38:00,93.2,93.2,29.50,WSW,248,4.0,5.0,100,0.00,,,0.00,0,Wunderground v.1.15,2013-05-04 22:38:00,
2013-05-04 15:43:00,93.1,93.1,29.50,SW,216,1.0,7.0,100,0.00,,,0.00,0,Wunderground v.1.15,2013-05-04 22:43:00,
2013-05-04 15:49:00,93.2,93.2,29.50,WSW,243,3.0,7.0,100,0.00,,,0.00,0,Wunderground v.1.15,2013-05-04 22:49:00,
2013-05-04 15:54:00,93.3,93.3,29.50,SW,218,1.0,3.0,100,0.00,,,0.00,0,Wunderground v.1.15,2013-05-04 22:54:00,
2013-05-04 16:00:00,93.4,93.4,29.50,WSW,248,0.0,0.0,100,0.00,,,0.00,0,Wunderground v.1.15,2013-05-04 23:00:00,
2013-05-04 16:08:00,93.2,93.2,29.49,WSW,257,2.0,12.0,100,0.00,,,0.00,0,Wunderground v.1.15,2013-05-04 23:08:00,
2013-05-04 16:13:00,93.3,93.3,29.49,West,273,0.0,5.0,100,0.00,,,0.00,0,Wunderground v.1.15,2013-05-04 23:13:00,
2013-05-04 16:18:00,93.2,93.2,29.49,WNW,297,2.0,5.0,100,0.00,,,0.00,0,Wunderground v.1.15,2013-05-04 23:18:00,
2013-05-04 16:23:00,93.0,93.0,29.49,WNW,288,7.0,7.0,100,0.00,,,0.00,0,Wunderground v.1.15,2013-05-04 23:23:00,
2013-05-04 16:28:00,92.6,92.6,29.48,West,271,3.0,7.0,100,0.00,,,0.00,0,Wunderground v.1.15,2013-05-04 23:28:00,
2013-05-04 16:33:00,92.3,92.3,29.48,WNW,292,5.0,5.0,100,0.00,,,0.00,0,Wunderground v.1.15,2013-05-04 23:33:00,
2013-05-04 16:38:00,92.2,92.2,29.48,NW,304,5.0,5.0,100,0.00,,,0.00,0,Wunderground v.1.15,2013-05-04 23:38:00,
2013-05-04 16:43:00,92.1,92.1,29.48,West,259,6.0,6.0,100,0.00,,,0.00,0,Wunderground v.1.15,2013-05-04 23:43:00,
2013-05-04 16:49:00,91.9,91.9,29.47,West,265,3.0,6.0,100,0.00,,,0.00,0,Wunderground v.1.15,2013-05-04 23:49:00,
2013-05-04 16:55:00,91.7,91.7,29.48,WNW,297,3.0,4.0,100,0.00,,,0.00,0,Wunderground v.1.15,2013-05-04 23:55:00,
2013-05-04 17:01:00,91.6,91.6,29.47,West,265,1.0,7.0,100,0.00,,,0.00,0,Wunderground v.1.15,2013-05-05 00:01:00,
2013-05-04 17:08:00,91.3,91.3,29.47,West,266,2.0,7.0,100,0.00,,,0.00,0,Wunderground v.1.15,2013-05-05 00:08:00,
2013-05-04 17:13:00,91.1,91.1,29.47,West,272,0.0,3.0,100,0.00,,,0.00,0,Wunderground v.1.15,2013-05-05 00:13:00,
2013-05-04 17:18:00,91.0,91.0,29.47,SW,230,3.0,3.0,100,0.00,,,0.00,0,Wunderground v.1.15,2013-05-05 00:18:00,
2013-05-04 17:23:00,90.8,90.8,29.47,SW,230,2.0,2.0,100,0.00,,,0.00,0,Wunderground v.1.15,2013-05-05 00:23:00,
2013-05-04 17:29:00,90.4,90.4,29.47,ESE,120,0.0,2.0,100,0.00,,,0.00,0,Wunderground v.1.15,2013-05-05 00:29:00,
2013-05-04 17:35:00,90.1,90.1,29.46,ESE,120,0.0,1.0,100,0.00,,,0.00,0,Wunderground v.1.15,2013-05-05 00:35:00,
2013-05-04 17:41:00,90.0,90.0,29.46,WNW,282,2.0,5.0,100,0.00,,,0.00,0,Wunderground v.1.15,2013-05-05 00:41:00,
2013-05-04 17:46:00,89.8,89.8,29.46,WSW,252,5.0,7.0,100,0.00,,,0.00,0,Wunderground v.1.15,2013-05-05 00:46:00,
2013-05-04 17:52:00,89.5,89.5,29.46,WSW,256,3.0,3.0,100,0.00,,,0.00,0,Wunderground v.1.15,2013-05-05 00:52:00,
2013-05-04 17:57:00,89.2,89.2,29.46,WNW,298,0.0,3.0,100,0.00,,,0.00,0,Wunderground v.1.15,2013-05-05 00:57:00,
2013-05-04 18:03:00,89.2,89.2,29.46,WNW,297,0.0,8.0,100,0.00,,,0.00,0,Wunderground v.1.15,2013-05-05 01:03:00,
2013-05-04 18:08:00,89.1,89.1,29.46,NW,307,0.0,8.0,100,0.00,,,0.00,0,Wunderground v.1.15,2013-05-05 01:08:00,
2013-05-04 18:14:00,89.0,89.0,29.46,WNW,298,0.0,0.0,100,0.00,,,0.00,0,Wunderground v.1.15,2013-05-05 01:14:00,
2013-05-04 18:20:00,88.9,-99.9,29.46,WNW,285,3.0,3.0,255,0.00,,,0.00,0,Wunderground v.1.15,2013-05-05 01:20:00,
2013-05-04 18:26:00,88.6,88.6,29.45,WNW,293,0.0,4.0,100,0.00,,,0.00,0,Wunderground v.1.15,2013-05-05 01:26:00,
2013-05-04 18:31:00,88.3,88.3,29.45,WNW,294,2.0,2.0,100,0.00,,,0.00,0,Wunderground v.1.15,2013-05-05 01:31:00,
2013-05-04 18:37:00,88.1,88.1,29.45,WNW,303,0.0,2.0,100,0.00,,,0.00,0,Wunderground v.1.15,2013-05-05 01:37:00,
2013-05-04 18:43:00,87.9,87.9,29.45,WNW,303,0.0,2.0,100,0.00,,,0.00,0,Wunderground v.1.15,2013-05-05 01:43:00,
2013-05-04 18:49:00,87.6,87.6,29.45,WNW,303,0.0,2.0,100,0.00,,,0.00,0,Wunderground v.1.15,2013-05-05 01:49:00,
2013-05-04 18:54:00,87.3,87.3,29.44,WNW,303,0.0,2.0,100,0.00,,,0.00,0,Wunderground v.1.15,2013-05-05 01:54:00,
2013-05-04 19:00:00,87.0,87.0,29.44,WNW,303,0.0,0.0,100,0.00,,,0.00,0,Wunderground v.1.15,2013-05-05 02:00:00,
2013-05-04 19:08:00,86.6,86.6,29.44,WNW,303,0.0,7.0,100,0.00,,,0.00,0,Wunderground v.1.15,2013-05-05 02:08:00,
2013-05-04 19:13:00,86.3,86.3,29.44,NW,319,2.0,4.0,100,0.00,,,0.00,0,Wunderground v.1.15,2013-05-05 02:13:00,
2013-05-04 19:19:00,85.3,85.3,29.44,NW,324,4.0,4.0,100,0.00,,,0.00,0,Wunderground v.1.15,2013-05-05 02:19:00,
2013-05-04 19:25:00,84.7,84.7,29.44,NNW,338,0.0,3.0,100,0.00,,,0.00,0,Wunderground v.1.15,2013-05-05 02:25:00,
2013-05-04 19:30:00,84.3,84.3,29.45,NNW,329,3.0,3.0,100,0.00,,,0.00,0,Wunderground v.1.15,2013-05-05 02:30:00,
2013-05-04 19:35:00,83.7,83.7,29.45,NNW,342,0.0,3.0,100,0.00,,,0.00,0,Wunderground v.1.15,2013-05-05 02:35:00,
2013-05-04 19:41:00,83.0,83.0,29.44,NNW,338,3.0,4.0,100,0.00,,,0.00,0,Wunderground v.1.15,2013-05-05 02:41:00,
2013-05-04 19:47:00,82.3,82.3,29.45,North,353,0.0,4.0,100,0.00,,,0.00,0,Wunderground v.1.15,2013-05-05 02:47:00,
2013-05-04 19:53:00,81.5,81.5,29.45,North,359,0.0,2.0,100,0.00,,,0.00,0,Wunderground v.1.15,2013-05-05 02:53:00,
2013-05-04 19:58:00,80.8,80.8,29.45,North,8,1.0,2.0,100,0.00,,,0.00,0,Wunderground v.1.15,2013-05-05 02:58:00,
2013-05-04 20:04:00,80.0,80.0,29.45,NNW,333,0.0,3.0,100,0.00,,,0.00,0,Wunderground v.1.15,2013-05-05 03:04:00,
2013-05-04 20:10:00,79.5,79.5,29.45,North,8,1.0,1.0,100,0.00,,,0.00,0,Wunderground v.1.15,2013-05-05 03:10:00,
2013-05-04 20:15:00,78.9,78.9,29.45,North,6,0.0,1.0,100,0.00,,,0.00,0,Wunderground v.1.15,2013-05-05 03:15:00,
2013-05-04 20:21:00,78.6,78.6,29.45,NNE,22,0.0,0.0,100,0.00,,,0.00,0,Wunderground v.1.15,2013-05-05 03:21:00,
2013-05-04 20:27:00,78.3,78.3,29.45,East,98,0.0,0.0,100,0.00,,,0.00,0,Wunderground v.1.15,2013-05-05 03:27:00,
2013-05-04 20:32:00,78.0,78.0,29.45,East,98,2.0,2.0,100,0.00,,,0.00,0,Wunderground v.1.15,2013-05-05 03:32:00,
2013-05-04 20:38:00,77.7,77.7,29.46,ENE,70,0.0,2.0,100,0.00,,,0.00,0,Wunderground v.1.15,2013-05-05 03:38:00,
2013-05-04 20:43:00,77.5,77.5,29.46,ESE,106,0.0,1.0,100,0.00,,,0.00,0,Wunderground v.1.15,2013-05-05 03:43:00,
2013-05-04 20:49:00,77.3,77.3,29.46,NNW,342,0.0,1.0,100,0.00,,,0.00,0,Wunderground v.1.15,2013-05-05 03:49:00,
2013-05-04 20:55:00,77.1,77.1,29.46,ENE,74,0.0,2.0,100,0.00,,,0.00,0,Wunderground v.1.15,2013-05-05 03:55:00,
2013-05-04 21:00:00,77.1,77.1,29.46,ESE,111,3.0,3.0,100,0.00,,,0.00,0,Wunderground v.1.15,2013-05-05 04:00:00,
2013-05-04 21:01:00,77.0,77.0,29.47,SE,126,0.0,6.0,100,0.00,,,0.00,0,Wunderground v.1.15,2013-05-05 04:01:00,
2013-05-04 21:02:00,77.0,77.0,29.47,ENE,67,0.0,6.0,100,0.00,,,0.00,0,Wunderground v.1.15,2013-05-05 04:02:00,
2013-05-04 21:04:00,77.0,77.0,29.47,East,89,1.0,6.0,100,0.00,,,0.00,0,Wunderground v.1.15,2013-05-05 04:04:00,
2013-05-04 21:10:00,76.8,76.8,29.47,ENE,70,5.0,5.0,100,0.00,,,0.00,0,Wunderground v.1.15,2013-05-05 04:10:00,
2013-05-04 21:14:00,76.7,76.7,29.47,ENE,78,2.0,5.0,100,0.00,,,0.00,0,Wunderground v.1.15,2013-05-05 04:14:00,
2013-05-04 21:19:00,76.5,76.5,29.47,East,94,0.0,6.0,100,0.00,,,0.00,0,Wunderground v.1.15,2013-05-05 04:19:00,
2013-05-04 21:24:00,76.2,76.2,29.47,East,89,0.0,1.0,100,0.00,,,0.00,0,Wunderground v.1.15,2013-05-05 04:24:00,
2013-05-04 21:30:00,76.0,76.0,29.48,NW,310,0.0,0.0,100,0.00,,,0.00,0,Wunderground v.1.15,2013-05-05 04:30:00,
2013-05-04 21:36:00,75.8,75.8,29.48,ESE,102,0.0,2.0,100,0.00,,,0.00,0,Wunderground v.1.15,2013-05-05 04:36:00,
2013-05-04 21:42:00,75.6,75.6,29.48,SE,130,0.0,1.0,100,0.00,,,0.00,0,Wunderground v.1.15,2013-05-05 04:42:00,
2013-05-04 21:48:00,75.5,75.5,29.48,NNE,15,0.0,1.0,100,0.00,,,0.00,0,Wunderground v.1.15,2013-05-05 04:48:00,
2013-05-04 21:54:00,75.2,75.2,29.48,NE,39,5.0,5.0,100,0.00,,,0.00,0,Wunderground v.1.15,2013-05-05 04:54:00,
2013-05-04 21:59:00,75.1,75.1,29.48,NE,34,2.0,5.0,100,0.00,,,0.00,0,Wunderground v.1.15,2013-05-05 04:59:00,
2013-05-04 22:08:00,74.9,74.9,29.48,SE,140,3.0,6.0,100,0.00,,,0.00,0,Wunderground v.1.15,2013-05-05 05:08:00,
2013-05-04 22:14:00,74.8,74.8,29.48,SE,131,0.0,3.0,100,0.00,,,0.00,0,Wunderground v.1.15,2013-05-05 05:14:00,
2013-05-04 22:19:00,74.7,74.7,29.48,East,98,2.0,6.0,100,0.00,,,0.00,0,Wunderground v.1.15,2013-05-05 05:19:00,
2013-05-04 22:25:00,74.5,74.5,29.48,East,89,2.0,4.0,100,0.00,,,0.00,0,Wunderground v.1.15,2013-05-05 05:25:00,
2013-05-04 22:31:00,74.4,74.4,29.48,East,99,1.0,1.0,100,0.00,,,0.00,0,Wunderground v.1.15,2013-05-05 05:31:00,
2013-05-04 22:36:00,74.2,74.2,29.47,ESE,123,2.0,3.0,100,0.00,,,0.00,0,Wunderground v.1.15,2013-05-05 05:36:00,
2013-05-04 22:42:00,74.0,74.0,29.48,SE,140,0.0,3.0,100,0.00,,,0.00,0,Wunderground v.1.15,2013-05-05 05:42:00,
2013-05-04 22:48:00,73.9,73.9,29.48,SE,139,1.0,4.0,100,0.00,,,0.00,0,Wunderground v.1.15,2013-05-05 05:48:00,
2013-05-04 22:54:00,73.6,73.6,29.48,SE,144,3.0,4.0,100,0.00,,,0.00,0,Wunderground v.1.15,2013-05-05 05:54:00,
2013-05-04 22:59:00,73.3,73.3,29.48,SE,134,4.0,4.0,100,0.00,,,0.00,0,Wunderground v.1.15,2013-05-05 05:59:00,
2013-05-04 23:04:00,73.0,73.0,29.49,SE,144,1.0,7.0,100,0.00,,,0.00,0,Wunderground v.1.15,2013-05-05 06:04:00,
2013-05-04 23:09:00,72.5,72.5,29.48,SE,146,3.0,7.0,100,0.00,,,0.00,0,Wunderground v.1.15,2013-05-05 06:09:00,
2013-05-04 23:15:00,72.2,72.2,29.49,SE,128,2.0,5.0,100,0.00,,,0.00,0,Wunderground v.1.15,2013-05-05 06:15:00,
2013-05-04 23:21:00,71.8,71.8,29.49,ESE,121,4.0,4.0,100,0.00,,,0.00,0,Wunderground v.1.15,2013-05-05 06:21:00,
2013-05-04 23:26:00,71.4,71.4,29.49,SSE,149,1.0,8.0,100,0.00,,,0.00,0,Wunderground v.1.15,2013-05-05 06:26:00,
2013-05-04 23:32:00,70.9,70.9,29.50,SSE,152,3.0,3.0,100,0.00,,,0.00,0,Wunderground v.1.15,2013-05-05 06:32:00,
2013-05-04 23:38:00,70.5,70.5,29.50,SE,143,5.0,6.0,100,0.00,,,0.00,0,Wunderground v.1.15,2013-05-05 06:38:00,
2013-05-04 23:43:00,70.1,70.1,29.50,SE,138,5.0,5.0,100,0.00,,,0.00,0,Wunderground v.1.15,2013-05-05 06:43:00,
2013-05-04 23:49:00,69.9,69.9,29.50,SE,146,2.0,5.0,100,0.00,,,0.00,0,Wunderground v.1.15,2013-05-05 06:49:00,
2013-05-04 23:54:00,69.7,69.7,29.50,SE,139,6.0,6.0,100,0.00,,,0.00,0,Wunderground v.1.15,2013-05-05 06:54:00,